createdAt,value
2023-01-29T00:00:22.511Z,3.70
2023-01-29T00:02:52.451Z,3.70
2023-01-29T00:05:27.846Z,3.70
2023-01-29T00:07:57.126Z,3.70
2023-01-29T00:10:26.634Z,3.70
2023-01-29T00:12:55.539Z,3.70
2023-01-29T00:15:24.271Z,3.70
2023-01-29T00:17:54.229Z,3.70
2023-01-29T00:20:22.888Z,3.70
2023-01-29T00:22:51.533Z,3.70
2023-01-29T00:25:20.292Z,3.60
2023-01-29T00:27:48.921Z,3.70
2023-01-29T00:30:19.773Z,3.70
2023-01-29T00:32:48.830Z,3.60
2023-01-29T00:35:18.966Z,3.80
2023-01-29T00:37:48.078Z,3.50
2023-01-29T00:40:17.377Z,3.60
2023-01-29T00:43:05.101Z,3.60
2023-01-29T00:45:34.051Z,3.60
2023-01-29T00:48:02.758Z,3.60
2023-01-29T00:50:33.574Z,3.60
2023-01-29T00:53:02.182Z,3.60
2023-01-29T00:55:31.458Z,3.60
2023-01-29T00:58:00.252Z,3.60
2023-01-29T01:00:28.852Z,3.60
2023-01-29T01:03:08.347Z,3.80
2023-01-29T01:05:39.147Z,3.60
2023-01-29T01:08:28.605Z,3.70
2023-01-29T01:11:01.079Z,3.60
2023-01-29T01:13:30.123Z,3.60
2023-01-29T01:15:59.188Z,3.70
2023-01-29T01:18:31.466Z,3.70
2023-01-29T01:21:01.745Z,3.70
2023-01-29T01:23:30.525Z,3.70
2023-01-29T01:25:59.225Z,3.80
2023-01-29T01:28:28.267Z,3.70
2023-01-29T01:30:57.176Z,3.70
2023-01-29T01:33:25.816Z,3.70
2023-01-29T01:35:54.453Z,3.70
2023-01-29T01:38:25.029Z,3.80
2023-01-29T01:40:53.775Z,3.70
2023-01-29T01:43:22.518Z,3.70
2023-01-29T01:45:51.120Z,3.70
2023-01-29T01:48:22.944Z,3.90
2023-01-29T01:50:54.421Z,3.70
2023-01-29T01:53:30.639Z,3.70
2023-01-29T01:56:04.874Z,3.70
2023-01-29T01:58:36.971Z,3.70
2023-01-29T02:01:08.305Z,3.70
2023-01-29T02:04:00.800Z,3.80
2023-01-29T02:06:46.988Z,3.80
2023-01-29T02:09:33.361Z,3.80
2023-01-29T02:12:02.580Z,3.80
2023-01-29T02:14:32.022Z,3.80
2023-01-29T02:17:02.341Z,3.80
2023-01-29T02:19:42.778Z,3.80
2023-01-29T02:22:30.663Z,3.80
2023-01-29T02:25:32.736Z,3.80
2023-01-29T02:28:21.903Z,3.80
2023-01-29T02:30:58.988Z,3.80
2023-01-29T02:33:37.127Z,3.80
2023-01-29T02:36:16.989Z,3.80
2023-01-29T02:38:51.955Z,3.80
2023-01-29T02:41:27.856Z,3.80
2023-01-29T02:44:06.296Z,3.80
2023-01-29T02:46:38.985Z,3.80
2023-01-29T02:49:14.129Z,3.90
2023-01-29T02:51:49.751Z,3.80
2023-01-29T02:54:22.988Z,3.80
2023-01-29T02:56:57.369Z,3.80
2023-01-29T02:59:35.525Z,3.80
2023-01-29T03:02:09.430Z,3.80
2023-01-29T03:04:45.736Z,3.80
2023-01-29T03:07:41.082Z,3.80
2023-01-29T03:10:20.435Z,3.80
2023-01-29T03:12:55.513Z,3.80
2023-01-29T03:15:30.536Z,3.80
2023-01-29T03:18:26.075Z,3.80
2023-01-29T03:21:01.472Z,3.80
2023-01-29T03:23:50.397Z,3.80
2023-01-29T03:26:40.281Z,3.80
2023-01-29T03:29:28.873Z,3.80
2023-01-29T03:32:05.681Z,3.80
2023-01-29T03:34:43.628Z,3.80
2023-01-29T03:37:18.784Z,3.80
2023-01-29T03:39:47.564Z,3.80
2023-01-29T03:42:24.872Z,3.80
2023-01-29T03:45:01.686Z,3.80
2023-01-29T03:47:44.574Z,3.80
2023-01-29T03:50:25.114Z,3.70
2023-01-29T03:53:03.458Z,3.70
2023-01-29T03:55:36.913Z,3.80
2023-01-29T03:58:10.272Z,3.80
2023-01-29T04:00:46.146Z,3.70
2023-01-29T04:03:21.620Z,3.70
2023-01-29T04:06:05.555Z,3.80
2023-01-29T04:08:42.011Z,3.80
2023-01-29T04:11:17.012Z,3.70
2023-01-29T04:13:46.928Z,3.70
2023-01-29T04:16:23.785Z,3.70
2023-01-29T04:19:14.004Z,3.70
2023-01-29T04:21:46.546Z,3.70
2023-01-29T04:24:16.116Z,3.60
2023-01-29T04:26:59.449Z,3.60
2023-01-29T04:29:40.850Z,3.60
2023-01-29T04:32:19.935Z,3.60
2023-01-29T04:35:01.779Z,3.60
2023-01-29T04:37:38.604Z,3.60
2023-01-29T04:40:19.481Z,3.50
2023-01-29T04:42:54.741Z,3.50
2023-01-29T04:45:33.173Z,3.50
2023-01-29T04:48:12.198Z,3.50
2023-01-29T04:50:47.594Z,3.50
2023-01-29T04:53:23.784Z,3.50
2023-01-29T04:55:57.517Z,3.50
2023-01-29T04:58:33.096Z,3.40
2023-01-29T05:01:05.810Z,3.40
2023-01-29T05:03:37.364Z,3.50
2023-01-29T05:06:11.181Z,3.40
2023-01-29T05:08:41.229Z,3.50
2023-01-29T05:11:10.801Z,3.40
2023-01-29T05:13:42.873Z,3.40
2023-01-29T05:16:16.667Z,3.40
2023-01-29T05:18:45.402Z,3.40
2023-01-29T05:21:15.384Z,3.40
2023-01-29T05:23:53.114Z,3.40
2023-01-29T05:26:40.035Z,3.40
2023-01-29T05:29:09.132Z,3.40
2023-01-29T05:31:37.872Z,3.40
2023-01-29T05:34:06.476Z,3.40
2023-01-29T05:36:36.413Z,3.40
2023-01-29T05:39:05.125Z,3.40
2023-01-29T05:41:33.829Z,3.40
2023-01-29T05:44:02.396Z,3.40
2023-01-29T05:46:30.983Z,3.30
2023-01-29T05:48:59.681Z,3.40
2023-01-29T05:51:28.368Z,3.40
2023-01-29T05:53:58.386Z,3.40
2023-01-29T05:56:27.010Z,3.40
2023-01-29T05:58:56.621Z,3.40
2023-01-29T06:01:26.975Z,3.40
2023-01-29T06:03:55.719Z,3.40
2023-01-29T06:06:24.449Z,3.50
2023-01-29T06:08:52.993Z,3.40
2023-01-29T06:11:22.873Z,3.50
2023-01-29T06:13:51.406Z,3.40
2023-01-29T06:16:20.125Z,3.70
2023-01-29T06:18:48.845Z,3.50
2023-01-29T06:21:19.948Z,3.50
2023-01-29T06:23:48.659Z,3.40
2023-01-29T06:26:17.625Z,3.50
2023-01-29T06:28:50.457Z,3.40
2023-01-29T06:31:36.960Z,3.50
2023-01-29T06:34:07.172Z,3.50
2023-01-29T06:36:35.847Z,3.50
2023-01-29T06:39:04.842Z,3.40
2023-01-29T06:41:33.546Z,3.50
2023-01-29T06:44:03.659Z,3.50
2023-01-29T06:46:32.518Z,3.60
2023-01-29T06:49:01.413Z,3.50
2023-01-29T06:51:30.385Z,3.50
2023-01-29T06:53:59.426Z,3.50
2023-01-29T06:56:28.037Z,3.50
2023-01-29T06:58:56.741Z,3.50
2023-01-29T07:01:35.768Z,3.50
2023-01-29T07:04:05.274Z,3.50
2023-01-29T07:06:34.150Z,3.50
2023-01-29T07:09:02.870Z,3.50
2023-01-29T07:11:32.034Z,3.50
2023-01-29T07:14:00.604Z,3.50
2023-01-29T07:16:30.648Z,3.50
2023-01-29T07:18:59.244Z,3.50
2023-01-29T07:21:28.044Z,3.50
2023-01-29T07:23:56.751Z,3.50
2023-01-29T07:26:25.316Z,3.60
2023-01-29T07:28:53.995Z,3.60
2023-01-29T07:31:22.948Z,3.60
2023-01-29T07:33:52.974Z,3.60
2023-01-29T07:36:21.681Z,3.60
2023-01-29T07:38:51.551Z,3.60
2023-01-29T07:41:20.432Z,3.60
2023-01-29T07:43:49.447Z,3.60
2023-01-29T07:46:18.158Z,3.60
2023-01-29T07:48:46.753Z,3.60
2023-01-29T07:51:18.413Z,3.60
2023-01-29T07:53:47.228Z,3.60
2023-01-29T07:56:15.888Z,3.70
2023-01-29T07:58:44.605Z,3.70
2023-01-29T08:01:13.206Z,3.70
2023-01-29T08:03:41.964Z,3.70
2023-01-29T08:06:10.566Z,3.70
2023-01-29T08:08:40.657Z,3.70
2023-01-29T08:11:09.329Z,3.70
2023-01-29T08:13:37.949Z,3.80
2023-01-29T08:16:07.546Z,3.80
2023-01-29T08:18:38.094Z,3.80
2023-01-29T08:21:06.937Z,3.80
2023-01-29T08:23:35.574Z,3.80
2023-01-29T08:26:06.079Z,3.80
2023-01-29T08:28:35.207Z,3.80
2023-01-29T08:31:03.906Z,3.80
2023-01-29T08:33:38.925Z,3.90
2023-01-29T08:36:09.349Z,3.90
2023-01-29T08:38:37.965Z,3.90
2023-01-29T08:41:08.457Z,3.90
2023-01-29T08:43:38.540Z,3.90
2023-01-29T08:46:08.207Z,3.90
2023-01-29T08:48:36.907Z,3.90
2023-01-29T08:51:06.013Z,4.00
2023-01-29T08:53:34.584Z,4.00
2023-01-29T08:56:03.286Z,4.00
2023-01-29T08:58:33.298Z,4.00
2023-01-29T09:01:07.846Z,4.10
2023-01-29T09:03:36.647Z,4.10
2023-01-29T09:06:05.668Z,4.10
2023-01-29T09:08:35.455Z,4.10
2023-01-29T09:11:04.044Z,4.20
2023-01-29T09:13:34.369Z,4.20
2023-01-29T09:16:03.895Z,4.20
2023-01-29T09:18:32.925Z,4.20
2023-01-29T09:21:02.540Z,4.20
2023-01-29T09:23:31.498Z,4.30
2023-01-29T09:26:00.543Z,4.30
2023-01-29T09:28:29.195Z,4.30
2023-01-29T09:31:02.848Z,4.30
2023-01-29T09:33:32.441Z,4.40
2023-01-29T09:36:00.999Z,4.40
2023-01-29T09:38:29.574Z,4.40
2023-01-29T09:41:07.468Z,4.50
2023-01-29T09:43:45.288Z,4.50
2023-01-29T09:46:22.380Z,4.60
2023-01-29T09:48:58.816Z,4.60
2023-01-29T09:51:32.443Z,4.60
2023-01-29T09:54:12.633Z,4.70
2023-01-29T09:56:43.237Z,4.70
2023-01-29T09:59:14.570Z,4.70
2023-01-29T10:01:53.856Z,4.70
2023-01-29T10:04:45.460Z,4.80
2023-01-29T10:07:27.824Z,4.80
2023-01-29T10:10:09.779Z,4.90
2023-01-29T10:12:51.557Z,4.90
2023-01-29T10:15:32.183Z,5.00
2023-01-29T10:18:40.095Z,5.00
2023-01-29T10:21:29.394Z,5.00
2023-01-29T10:24:06.749Z,5.00
2023-01-29T10:26:37.839Z,5.00
2023-01-29T10:29:08.985Z,5.10
2023-01-29T10:31:40.763Z,5.00
2023-01-29T10:34:17.838Z,5.10
2023-01-29T10:36:47.707Z,5.00
2023-01-29T10:39:19.337Z,5.10
2023-01-29T10:42:07.640Z,5.00
2023-01-29T10:44:47.024Z,5.00
2023-01-29T10:47:53.908Z,5.10
2023-01-29T10:50:37.470Z,5.00
2023-01-29T10:53:30.516Z,5.00
2023-01-29T10:56:21.783Z,5.10
2023-01-29T10:58:53.244Z,5.00
2023-01-29T11:01:21.882Z,5.10
2023-01-29T11:03:58.037Z,5.10
2023-01-29T11:06:31.138Z,5.20
2023-01-29T11:09:09.086Z,5.20
2023-01-29T11:11:42.909Z,5.30
2023-01-29T11:14:15.174Z,5.30
2023-01-29T11:16:45.642Z,5.30
2023-01-29T11:19:14.803Z,5.30
2023-01-29T11:21:58.018Z,5.40
2023-01-29T11:24:26.908Z,5.40
2023-01-29T11:26:58.165Z,5.40
2023-01-29T11:29:40.639Z,5.50
2023-01-29T11:32:14.379Z,5.50
2023-01-29T11:35:03.204Z,5.50
2023-01-29T11:37:38.276Z,5.50
2023-01-29T11:40:38.660Z,5.50
2023-01-29T11:43:31.852Z,5.50
2023-01-29T11:46:03.546Z,5.50
2023-01-29T11:48:41.679Z,5.50
2023-01-29T11:51:13.682Z,5.40
2023-01-29T11:53:45.679Z,5.40
2023-01-29T11:56:23.605Z,5.40
2023-01-29T11:58:55.341Z,5.40
2023-01-29T12:01:32.979Z,5.40
2023-01-29T12:04:02.052Z,5.40
2023-01-29T12:06:36.605Z,5.30
2023-01-29T12:09:14.460Z,5.40
2023-01-29T12:11:44.469Z,5.40
2023-01-29T12:14:28.105Z,5.40
2023-01-29T12:17:00.692Z,5.40
2023-01-29T12:19:35.077Z,5.40
2023-01-29T12:22:07.649Z,5.40
2023-01-29T12:24:45.011Z,5.30
2023-01-29T12:27:18.536Z,5.30
2023-01-29T12:29:52.430Z,5.30
2023-01-29T12:32:30.730Z,5.40
2023-01-29T12:35:05.167Z,5.30
2023-01-29T12:37:46.627Z,5.30
2023-01-29T12:40:18.978Z,5.30
2023-01-29T12:42:50.716Z,5.30
2023-01-29T12:45:22.097Z,5.30
2023-01-29T12:47:53.398Z,5.30
2023-01-29T12:50:25.057Z,5.30
2023-01-29T12:52:56.810Z,5.30
2023-01-29T12:55:33.714Z,5.30
2023-01-29T12:58:05.400Z,5.30
2023-01-29T13:00:36.696Z,5.30
2023-01-29T13:03:16.194Z,5.30
2023-01-29T13:05:48.250Z,5.30
2023-01-29T13:08:21.942Z,5.20
2023-01-29T13:10:54.601Z,5.20
2023-01-29T13:13:29.397Z,5.20
2023-01-29T13:16:00.099Z,5.20
2023-01-29T13:18:40.699Z,5.20
2023-01-29T13:21:15.439Z,5.20
2023-01-29T13:23:48.046Z,5.20
2023-01-29T13:26:21.278Z,5.30
2023-01-29T13:28:50.746Z,5.30
2023-01-29T13:31:31.493Z,5.30
2023-01-29T13:34:10.877Z,5.30
2023-01-29T13:36:44.237Z,5.40
2023-01-29T13:39:23.633Z,5.50
2023-01-29T13:41:54.813Z,5.60
2023-01-29T13:44:26.867Z,5.70
2023-01-29T13:46:58.795Z,5.70
2023-01-29T13:49:32.639Z,5.70
2023-01-29T13:52:14.885Z,5.70
2023-01-29T13:54:52.636Z,5.70
2023-01-29T13:57:54.733Z,5.70
2023-01-29T14:00:58.627Z,5.70
2023-01-29T14:04:04.578Z,5.80
2023-01-29T14:06:44.856Z,5.80
2023-01-29T14:09:56.990Z,5.80
2023-01-29T14:12:44.414Z,5.80
2023-01-29T14:15:36.253Z,5.80
2023-01-29T14:18:17.278Z,5.80
2023-01-29T14:20:56.857Z,5.80
2023-01-29T14:23:35.701Z,5.80
2023-01-29T14:26:07.011Z,5.80
2023-01-29T14:28:36.323Z,5.80
2023-01-29T14:31:07.596Z,5.90
2023-01-29T14:33:39.833Z,5.90
2023-01-29T14:36:14.044Z,5.90
2023-01-29T14:38:51.145Z,5.90
2023-01-29T14:41:27.755Z,5.80
2023-01-29T14:44:29.616Z,5.90
2023-01-29T14:46:59.577Z,5.90
2023-01-29T14:49:50.634Z,5.90
2023-01-29T14:52:22.560Z,6.00
2023-01-29T14:54:54.101Z,6.00
2023-01-29T14:57:23.625Z,5.90
2023-01-29T14:59:57.253Z,5.90
2023-01-29T15:02:33.628Z,5.90
2023-01-29T15:05:05.564Z,5.90
2023-01-29T15:07:38.195Z,5.90
2023-01-29T15:10:23.666Z,5.90
2023-01-29T15:12:58.169Z,5.80
2023-01-29T15:15:36.311Z,5.80
2023-01-29T15:18:10.024Z,5.80
2023-01-29T15:20:40.242Z,5.80
2023-01-29T15:23:27.278Z,5.90
2023-01-29T15:25:58.263Z,5.80
2023-01-29T15:28:27.767Z,5.80
2023-01-29T15:30:59.020Z,5.90
2023-01-29T15:33:29.631Z,5.80
2023-01-29T15:36:08.731Z,5.80
2023-01-29T15:38:37.467Z,5.80
2023-01-29T15:41:18.584Z,5.70
2023-01-29T15:43:48.890Z,5.70
2023-01-29T15:46:24.026Z,5.70
2023-01-29T15:48:55.890Z,5.70
2023-01-29T15:51:28.119Z,5.70
2023-01-29T15:54:00.220Z,5.60
2023-01-29T15:56:33.431Z,5.60
2023-01-29T15:59:09.416Z,5.60
2023-01-29T16:01:38.452Z,5.70
2023-01-29T16:04:14.386Z,5.60
2023-01-29T16:06:44.454Z,5.60
2023-01-29T16:09:18.991Z,5.60
2023-01-29T16:11:50.401Z,5.50
2023-01-29T16:14:25.389Z,5.60
2023-01-29T16:16:54.064Z,5.50
2023-01-29T16:19:26.285Z,5.50
2023-01-29T16:22:00.180Z,5.50
2023-01-29T16:24:31.000Z,5.50
2023-01-29T16:27:02.190Z,5.60
2023-01-29T16:29:32.880Z,5.40
2023-01-29T16:32:03.687Z,5.40
2023-01-29T16:34:37.694Z,5.30
2023-01-29T16:37:08.708Z,5.30
2023-01-29T16:39:40.105Z,5.30
2023-01-29T16:42:30.039Z,5.20
2023-01-29T16:45:01.839Z,5.20
2023-01-29T16:47:36.074Z,5.10
2023-01-29T16:50:27.651Z,5.20
2023-01-29T16:52:58.247Z,5.10
2023-01-29T16:55:27.105Z,5.00
2023-01-29T16:57:57.215Z,5.00
2023-01-29T17:00:28.805Z,4.90
2023-01-29T17:03:02.345Z,4.90
2023-01-29T17:05:35.113Z,4.90
2023-01-29T17:08:05.716Z,4.80
2023-01-29T17:10:35.933Z,4.80
2023-01-29T17:13:07.542Z,4.70
2023-01-29T17:15:44.473Z,4.70
2023-01-29T17:18:18.784Z,4.60
2023-01-29T17:20:49.471Z,4.60
2023-01-29T17:23:18.243Z,4.60
2023-01-29T17:25:47.998Z,4.60
2023-01-29T17:28:18.822Z,4.60
2023-01-29T17:31:00.071Z,4.60
2023-01-29T17:33:29.307Z,4.60
2023-01-29T17:35:59.329Z,4.60
2023-01-29T17:38:27.971Z,4.60
2023-01-29T17:40:59.095Z,4.60
2023-01-29T17:43:27.858Z,4.60
2023-01-29T17:45:56.532Z,4.60
2023-01-29T17:48:26.798Z,4.60
2023-01-29T17:50:57.502Z,4.60
2023-01-29T17:53:43.352Z,4.60
2023-01-29T17:56:17.055Z,4.60
2023-01-29T17:58:45.743Z,4.70
2023-01-29T18:01:14.251Z,4.70
2023-01-29T18:03:43.029Z,4.60
2023-01-29T18:06:18.902Z,4.70
2023-01-29T18:08:48.872Z,4.70
2023-01-29T18:11:17.421Z,4.70
2023-01-29T18:13:46.016Z,4.70
2023-01-29T18:16:14.933Z,4.70
2023-01-29T18:18:43.549Z,4.70
2023-01-29T18:21:12.181Z,4.90
2023-01-29T18:23:41.002Z,4.70
2023-01-29T18:26:13.109Z,4.80
2023-01-29T18:28:43.661Z,4.80
2023-01-29T18:31:14.146Z,4.80
2023-01-29T18:33:43.070Z,4.80
2023-01-29T18:36:11.899Z,4.80
2023-01-29T18:38:40.762Z,4.80
2023-01-29T18:41:11.669Z,4.90
2023-01-29T18:43:41.117Z,4.90
2023-01-29T18:46:10.346Z,4.90
2023-01-29T18:48:40.937Z,4.90
2023-01-29T18:51:10.222Z,4.90
2023-01-29T18:53:38.755Z,4.90
2023-01-29T18:56:08.805Z,4.90
2023-01-29T18:58:39.429Z,4.90
2023-01-29T19:01:12.042Z,4.90
2023-01-29T19:03:41.647Z,4.90
2023-01-29T19:06:11.802Z,4.90
2023-01-29T19:08:42.963Z,4.90
2023-01-29T19:11:12.549Z,4.90
2023-01-29T19:13:42.947Z,4.90
2023-01-29T19:16:13.595Z,4.90
2023-01-29T19:18:42.390Z,4.90
2023-01-29T19:21:12.959Z,4.90
2023-01-29T19:23:42.135Z,4.90
2023-01-29T19:26:11.635Z,4.90
2023-01-29T19:28:41.872Z,4.90
2023-01-29T19:31:10.898Z,4.80
2023-01-29T19:33:39.981Z,4.90
2023-01-29T19:36:09.114Z,4.80
2023-01-29T19:38:41.215Z,4.80
2023-01-29T19:41:09.922Z,4.90
2023-01-29T19:43:41.885Z,4.90
2023-01-29T19:46:12.014Z,4.90
2023-01-29T19:48:40.779Z,4.90
2023-01-29T19:51:12.125Z,4.90
2023-01-29T19:53:43.763Z,4.90
2023-01-29T19:56:14.097Z,4.90
2023-01-29T19:58:42.725Z,4.90
2023-01-29T20:01:17.313Z,4.90
2023-01-29T20:03:47.608Z,4.90
2023-01-29T20:06:18.531Z,4.90
2023-01-29T20:08:47.501Z,4.90
2023-01-29T20:11:17.003Z,4.90
2023-01-29T20:13:48.414Z,4.90
2023-01-29T20:16:20.051Z,5.00
2023-01-29T20:18:48.638Z,5.00
2023-01-29T20:21:20.511Z,5.00
2023-01-29T20:23:51.494Z,5.00
2023-01-29T20:26:21.474Z,5.00
2023-01-29T20:28:50.346Z,5.10
2023-01-29T20:31:20.349Z,5.00
2023-01-29T20:33:48.841Z,5.10
2023-01-29T20:36:17.379Z,5.00
2023-01-29T20:38:46.162Z,5.10
2023-01-29T20:41:16.281Z,5.10
2023-01-29T20:43:45.848Z,5.10
2023-01-29T20:46:14.767Z,5.10
2023-01-29T20:48:44.725Z,5.10
2023-01-29T20:51:15.559Z,5.10
2023-01-29T20:53:46.392Z,5.10
2023-01-29T20:56:16.298Z,5.10
2023-01-29T20:58:46.546Z,5.20
2023-01-29T21:01:17.723Z,5.20
2023-01-29T21:03:49.495Z,5.20
2023-01-29T21:06:18.031Z,5.20
2023-01-29T21:08:46.824Z,5.20
2023-01-29T21:11:15.331Z,5.30
2023-01-29T21:13:44.018Z,5.20
2023-01-29T21:16:12.737Z,5.20
2023-01-29T21:18:41.319Z,5.30
2023-01-29T21:21:11.374Z,5.30
2023-01-29T21:23:39.928Z,5.30
2023-01-29T21:26:08.996Z,5.30
2023-01-29T21:28:37.638Z,5.30
2023-01-29T21:31:07.669Z,5.30
2023-01-29T21:33:36.205Z,5.40
2023-01-29T21:36:05.267Z,5.40
2023-01-29T21:38:35.267Z,5.40
2023-01-29T21:41:06.174Z,5.40
2023-01-29T21:43:34.014Z,5.50
2023-01-29T21:46:05.098Z,5.50
2023-01-29T21:48:33.777Z,5.50
2023-01-29T21:51:02.533Z,5.50
2023-01-29T21:53:31.084Z,5.50
2023-01-29T21:56:02.040Z,5.50
2023-01-29T21:58:30.941Z,5.60
2023-01-29T22:01:18.553Z,5.60
2023-01-29T22:03:47.984Z,5.60
2023-01-29T22:06:16.570Z,5.70
2023-01-29T22:08:45.030Z,5.70
2023-01-29T22:11:15.133Z,5.70
2023-01-29T22:13:43.867Z,5.70
2023-01-29T22:16:12.304Z,5.80
2023-01-29T22:18:40.794Z,5.80
2023-01-29T22:21:09.243Z,5.80
2023-01-29T22:23:38.013Z,5.80
2023-01-29T22:26:09.016Z,5.80
2023-01-29T22:28:38.957Z,5.80
2023-01-29T22:31:07.473Z,5.90
2023-01-29T22:33:36.020Z,5.90
2023-01-29T22:36:04.772Z,5.90
2023-01-29T22:38:33.301Z,5.90
2023-01-29T22:41:02.251Z,6.00
2023-01-29T22:43:30.876Z,6.00
2023-01-29T22:46:00.803Z,6.10
2023-01-29T22:48:30.523Z,6.10
2023-01-29T22:51:10.452Z,6.10
2023-01-29T22:53:40.025Z,6.10
2023-01-29T22:56:09.870Z,6.20
2023-01-29T22:58:38.603Z,6.20
2023-01-29T23:01:08.782Z,6.20
2023-01-29T23:03:37.569Z,6.20
2023-01-29T23:06:06.136Z,6.20
2023-01-29T23:08:35.019Z,6.30
2023-01-29T23:11:13.909Z,6.30
2023-01-29T23:13:44.155Z,6.40
2023-01-29T23:16:15.052Z,6.30
2023-01-29T23:18:43.847Z,6.30
2023-01-29T23:21:13.801Z,6.40
2023-01-29T23:23:44.890Z,6.40
2023-01-29T23:26:32.666Z,6.40
2023-01-29T23:29:01.492Z,6.40
2023-01-29T23:31:31.945Z,6.50
2023-01-29T23:34:00.488Z,6.50
2023-01-29T23:36:28.991Z,6.50
2023-01-29T23:38:57.522Z,6.50
2023-01-29T23:41:26.053Z,6.50
2023-01-29T23:43:54.525Z,6.50
2023-01-29T23:46:23.026Z,6.60
2023-01-29T23:48:52.878Z,6.60
2023-01-29T23:51:23.965Z,6.60
2023-01-29T23:53:52.523Z,6.60
2023-01-29T23:56:21.051Z,6.70
2023-01-29T23:58:53.308Z,6.80
